Time;durP1;ratioP1;P1;durP2;ratioP2;P2;SDS_P1;SDS_P2;PMS_P1;PMS_P2;Temp;Humidity;BMP_temperature;BMP_pressure;BME280_temperature;BME280_humidity;BME280_pressure;Samples;Min_cycle;Max_cycle;Signal;HPM_P1;HPM_P2
2021/08/22 00:02:03;;;;;;;;;6.25;6.25;;;;;20.94;100.00;101508.94;5121257;27;45532;-67
2021/08/22 00:04:28;;;;;;;;;6.25;5.50;;;;;20.95;100.00;101519.47;5120880;27;45438;-67
2021/08/22 00:06:53;;;;;;;;;5.75;5.25;;;;;20.89;100.00;101510.94;5120924;27;45460;-68
2021/08/22 00:12:41;;;;;;;;;5.00;5.00;;;;;20.77;100.00;101493.75;5120300;27;45633;-68
2021/08/22 00:15:08;;;;;;;;;6.50;6.25;;;;;20.83;100.00;101503.25;5120815;27;45388;-67
2021/08/22 00:17:33;;;;;;;;;6.00;6.00;;;;;20.75;100.00;101500.91;5120533;27;47093;-67
2021/08/22 00:20:01;;;;;;;;;7.00;5.75;;;;;20.77;100.00;101507.88;5120743;27;45383;-67
2021/08/22 00:22:26;;;;;;;;;7.00;6.50;;;;;20.74;100.00;101500.06;5120368;27;45345;-68
2021/08/22 00:24:52;;;;;;;;;6.50;6.00;;;;;20.70;100.00;101502.91;5121035;27;45403;-67
2021/08/22 00:27:17;;;;;;;;;8.00;6.00;;;;;20.74;100.00;101515.97;5120711;27;45462;-67
2021/08/22 00:29:46;;;;;;;;;8.00;8.00;;;;;20.65;100.00;101499.63;5120632;27;45286;-67
2021/08/22 00:32:14;;;;;;;;;7.00;6.50;;;;;20.66;100.00;101518.13;5102241;27;45364;-68
2021/08/22 00:34:39;;;;;;;;;7.75;7.25;;;;;20.64;100.00;101525.28;5120664;27;45398;-68
2021/08/22 00:43:11;;;;;;;;;8.00;7.25;;;;;20.57;100.00;101531.78;5120440;27;45456;-68
2021/08/22 00:45:37;;;;;;;;;6.75;6.00;;;;;20.53;100.00;101526.66;5120445;27;45539;-68
2021/08/22 00:48:03;;;;;;;;;6.00;6.00;;;;;20.49;100.00;101529.47;5120065;27;47006;-68
2021/08/22 00:50:33;;;;;;;;;7.75;6.75;;;;;20.47;100.00;101522.50;5120063;27;45255;-68
2021/08/22 00:52:59;;;;;;;;;8.75;6.75;;;;;20.47;100.00;101530.44;5120218;27;45272;-68
2021/08/22 00:55:25;;;;;;;;;8.00;6.50;;;;;20.46;100.00;101534.91;5120619;27;45263;-68
2021/08/22 00:57:50;;;;;;;;;6.50;6.25;;;;;20.41;100.00;101525.41;5120100;27;45539;-68
2021/08/22 01:00:16;;;;;;;;;8.50;8.50;;;;;20.48;100.00;101529.53;5120280;27;45414;-67
2021/08/22 01:03:18;;;;;;;;;7.00;6.00;;;;;20.36;100.00;101517.59;5120400;27;45314;-67
2021/08/22 01:05:49;;;;;;;;;7.50;6.50;;;;;20.44;100.00;101539.41;5120477;27;45355;-67
2021/08/22 01:11:40;;;;;;;;;6.75;5.00;;;;;20.39;100.00;101541.38;5119662;27;45412;-67
2021/08/22 01:14:11;;;;;;;;;7.00;7.00;;;;;20.40;100.00;101550.19;5119822;27;45311;-67
2021/08/22 01:16:50;;;;;;;;;7.50;6.00;;;;;20.37;100.00;101543.22;5120255;27;45303;-67
2021/08/22 01:19:36;;;;;;;;;7.00;5.75;;;;;20.33;100.00;101541.59;5119491;27;46531;-67
2021/08/22 01:22:06;;;;;;;;;5.75;4.75;;;;;20.17;100.00;101521.97;5119323;27;45526;-67
2021/08/22 01:27:55;;;;;;;;;7.25;6.75;;;;;20.32;100.00;101553.13;5119878;27;45354;-67
2021/08/22 01:30:21;;;;;;;;;6.50;6.00;;;;;20.29;100.00;101549.75;5119684;27;45574;-67
2021/08/22 01:32:51;;;;;;;;;6.00;6.00;;;;;20.25;100.00;101559.63;5119657;27;45240;-66
2021/08/22 01:35:21;;;;;;;;;5.75;5.00;;;;;20.25;100.00;101562.28;5100320;27;45280;-68
2021/08/22 01:37:49;;;;;;;;;7.00;6.00;;;;;20.17;100.00;101556.44;5119494;27;45596;-68
2021/08/22 01:40:21;;;;;;;;;6.00;5.50;;;;;20.23;100.00;101565.94;5119166;27;47267;-68
2021/08/22 01:42:48;;;;;;;;;6.50;5.50;;;;;20.21;100.00;101554.53;5119191;27;45433;-68
2021/08/22 01:45:15;;;;;;;;;8.25;7.00;;;;;20.21;100.00;101559.84;5119378;27;45348;-67
2021/08/22 01:47:46;;;;;;;;;7.00;5.00;;;;;20.12;100.00;101546.00;5119474;27;45344;-67
2021/08/22 01:50:13;;;;;;;;;6.00;5.00;;;;;20.15;100.00;101553.88;5118998;27;46983;-67
2021/08/22 01:52:39;;;;;;;;;5.75;5.50;;;;;20.13;100.00;101541.56;5119191;27;45657;-68
2021/08/22 01:55:06;;;;;;;;;5.50;5.50;;;;;20.11;100.00;101548.72;5119487;27;45398;-68
2021/08/22 01:57:32;;;;;;;;;6.25;5.00;;;;;20.12;100.00;101558.41;5119300;27;45452;-67
2021/08/22 01:59:58;;;;;;;;;6.00;6.00;;;;;20.10;100.00;101554.94;5119256;27;45592;-67
2021/08/22 02:02:23;;;;;;;;;6.00;6.00;;;;;20.07;100.00;101560.38;5118963;27;45260;-68
2021/08/22 02:04:55;;;;;;;;;5.00;4.75;;;;;20.05;100.00;101565.75;5119100;27;45254;-67
2021/08/22 02:07:28;;;;;;;;;8.00;5.00;;;;;20.03;100.00;101561.44;5119211;27;45231;-68
2021/08/22 02:10:02;;;;;;;;;6.00;5.00;;;;;20.03;100.00;101564.94;5118765;27;46504;-67
2021/08/22 02:12:28;;;;;;;;;5.75;4.50;;;;;19.97;100.00;101556.38;5118638;27;45731;-67
2021/08/22 02:15:11;;;;;;;;;2.00;1.75;;;;;19.99;100.00;101560.69;5119008;27;45302;-67
2021/08/22 02:17:42;;;;;;;;;6.25;6.00;;;;;19.96;100.00;101563.47;5119067;27;45480;-67
2021/08/22 02:20:09;;;;;;;;;5.50;4.75;;;;;20.00;100.00;101564.22;5118735;27;46457;-67
2021/08/22 02:22:35;;;;;;;;;4.00;3.00;;;;;20.01;100.00;101573.91;5118655;27;45273;-67
2021/08/22 02:25:01;;;;;;;;;6.00;5.25;;;;;19.98;100.00;101574.03;5118916;27;45482;-67
2021/08/22 02:27:31;;;;;;;;;5.75;5.75;;;;;19.93;100.00;101562.75;5118964;27;45444;-67
2021/08/22 02:29:56;;;;;;;;;4.00;4.00;;;;;19.88;100.00;101577.03;5118823;27;45273;-68
2021/08/22 02:32:23;;;;;;;;;5.50;5.25;;;;;19.82;100.00;101564.03;5118605;27;45355;-68
2021/08/22 02:34:52;;;;;;;;;6.00;5.00;;;;;19.82;100.00;101573.75;5118707;27;45255;-68
2021/08/22 02:37:18;;;;;;;;;5.00;4.00;;;;;19.77;100.00;101573.09;5119122;27;45413;-67
2021/08/22 02:43:05;;;;;;;;;4.00;4.00;;;;;19.60;100.00;101552.53;5118577;27;45697;-67
2021/08/22 02:45:32;;;;;;;;;6.00;5.00;;;;;19.61;100.00;101564.84;5118651;27;45283;-68
2021/08/22 02:47:59;;;;;;;;;9.25;4.75;;;;;19.62;100.00;101568.38;5122336;27;45319;-67
2021/08/22 02:50:26;;;;;;;;;5.00;4.00;;;;;19.55;100.00;101565.09;5121472;27;46739;-68
2021/08/22 02:52:51;;;;;;;;;4.75;4.75;;;;;19.52;100.00;101575.78;5121947;27;45300;-68
2021/08/22 02:55:17;;;;;;;;;6.75;5.00;;;;;19.53;100.00;101577.50;5122052;27;45500;-68
2021/08/22 02:57:43;;;;;;;;;5.25;5.00;;;;;19.46;100.00;101568.94;5122238;27;45685;-68
2021/08/22 03:00:09;;;;;;;;;4.25;4.00;;;;;19.47;100.00;101573.31;5121791;27;45419;-68
2021/08/22 03:02:35;;;;;;;;;4.00;3.25;;;;;19.43;100.00;101576.97;5121997;27;45590;-68
2021/08/22 03:05:00;;;;;;;;;6.75;5.75;;;;;19.45;100.00;101577.78;5122098;27;45250;-68
2021/08/22 03:13:50;;;;;;;;;5.00;5.00;;;;;19.30;100.00;101566.91;5120721;27;45348;-68
2021/08/22 03:16:15;;;;;;;;;5.75;5.00;;;;;19.25;100.00;101564.44;5103781;27;45377;-68
2021/08/22 03:18:44;;;;;;;;;6.00;4.00;;;;;19.23;100.00;101572.41;5121981;27;45430;-68
2021/08/22 03:21:09;;;;;;;;;4.00;4.00;;;;;19.15;100.00;101569.19;5121427;27;46306;-68
2021/08/22 03:23:35;;;;;;;;;5.00;5.00;;;;;19.15;100.00;101570.97;5121466;27;45340;-67
2021/08/22 03:26:02;;;;;;;;;5.25;4.75;;;;;19.07;100.00;101565.13;5121603;27;45373;-67
2021/08/22 03:28:28;;;;;;;;;5.75;5.00;;;;;18.98;100.00;101551.28;5121924;27;45472;-67
2021/08/22 03:30:53;;;;;;;;;6.00;5.50;;;;;19.01;100.00;101566.22;5103201;27;46516;-68
2021/08/22 03:33:19;;;;;;;;;5.00;4.25;;;;;18.95;100.00;101569.06;5121707;27;45399;-68
2021/08/22 03:35:45;;;;;;;;;6.00;5.75;;;;;18.90;100.00;101560.41;5121892;27;45387;-69
2021/08/22 03:38:10;;;;;;;;;7.50;4.00;;;;;18.91;100.00;101575.38;5122028;27;45221;-69
2021/08/22 03:40:36;;;;;;;;;4.25;4.00;;;;;18.84;100.00;101560.66;5121593;27;46490;-69
2021/08/22 03:43:01;;;;;;;;;7.00;5.00;;;;;18.89;100.00;101577.22;5121541;27;45251;-68
2021/08/22 03:45:27;;;;;;;;;6.00;5.00;;;;;18.89;100.00;101567.50;5121448;27;45312;-69
2021/08/22 03:47:52;;;;;;;;;5.50;4.25;;;;;18.89;100.00;101574.56;5121479;27;45359;-68
2021/08/22 03:50:18;;;;;;;;;7.75;5.00;;;;;18.84;100.00;101574.75;5121337;27;45903;-68
2021/08/22 03:52:43;;;;;;;;;7.00;6.00;;;;;18.89;100.00;101578.09;5121336;27;45221;-68
2021/08/22 03:55:09;;;;;;;;;9.75;8.75;;;;;18.90;100.00;101576.28;5121197;27;45321;-68
2021/08/22 03:57:34;;;;;;;;;7.25;6.00;;;;;18.86;100.00;101572.91;5120739;27;45504;-67
2021/08/22 04:00:00;;;;;;;;;7.50;5.75;;;;;18.85;100.00;101573.81;5120743;27;47179;-68
2021/08/22 04:02:28;;;;;;;;;6.75;5.00;;;;;18.71;100.00;101552.25;5120948;27;45445;-68
2021/08/22 04:04:54;;;;;;;;;7.00;6.25;;;;;18.84;100.00;101580.03;5120992;27;45347;-67
2021/08/22 04:07:19;;;;;;;;;8.50;5.50;;;;;18.82;100.00;101587.16;5121133;27;45390;-69
2021/08/22 04:13:07;;;;;;;;;8.00;6.00;;;;;18.67;100.00;101577.97;5120674;27;45303;-67
2021/08/22 04:15:32;;;;;;;;;7.75;6.00;;;;;18.66;100.00;101591.25;5120879;27;45357;-67
2021/08/22 04:17:58;;;;;;;;;6.00;4.25;;;;;18.63;100.00;101589.56;5121285;27;45300;-67
2021/08/22 04:20:24;;;;;;;;;9.00;7.00;;;;;18.58;100.00;101585.31;5120815;27;46440;-67
2021/08/22 04:22:49;;;;;;;;;6.00;5.00;;;;;18.58;100.00;101587.97;5102082;27;45406;-67
2021/08/22 04:25:15;;;;;;;;;6.75;6.00;;;;;18.55;100.00;101578.34;5121046;27;45302;-67
2021/08/22 04:27:41;;;;;;;;;8.00;6.25;;;;;18.50;100.00;101569.69;5121059;27;45266;-67
2021/08/22 04:30:09;;;;;;;;;5.75;5.75;;;;;18.59;100.00;101579.97;5120388;27;46449;-67
2021/08/22 04:32:36;;;;;;;;;9.00;6.00;;;;;18.61;100.00;101588.72;5120467;27;45253;-66
2021/08/22 04:35:01;;;;;;;;;7.75;6.00;;;;;18.46;100.00;101568.06;5120549;27;45363;-67
2021/08/22 04:37:27;;;;;;;;;5.75;5.00;;;;;18.58;100.00;101580.91;5120713;27;45462;-69
2021/08/22 04:43:14;;;;;;;;;5.25;4.00;;;;;18.55;100.00;101586.28;5120309;27;45270;-68
2021/08/22 04:45:40;;;;;;;;;7.00;6.00;;;;;18.48;100.00;101582.13;5120748;27;45269;-68
2021/08/22 04:48:05;;;;;;;;;6.00;5.75;;;;;18.53;100.00;101584.59;5120794;27;45208;-68
2021/08/22 04:50:31;;;;;;;;;5.75;4.75;;;;;18.50;100.00;101590.84;5120234;27;46710;-68
2021/08/22 04:52:56;;;;;;;;;6.00;5.00;;;;;18.47;100.00;101598.03;5120139;27;45836;-68
2021/08/22 04:55:22;;;;;;;;;4.50;4.25;;;;;18.38;100.00;101583.34;5120582;27;45275;-69
2021/08/22 04:57:47;;;;;;;;;5.00;5.00;;;;;18.42;100.00;101594.69;5120676;27;45360;-68
2021/08/22 05:00:13;;;;;;;;;5.25;4.00;;;;;18.33;100.00;101594.09;5120130;27;46039;-68
2021/08/22 05:02:39;;;;;;;;;7.50;4.50;;;;;18.36;100.00;101601.91;5120147;27;45845;-68
2021/08/22 05:05:04;;;;;;;;;4.00;4.00;;;;;18.31;100.00;101601.16;5120370;27;45290;-68
2021/08/22 05:07:32;;;;;;;;;5.50;5.00;;;;;18.36;100.00;101603.69;5120190;27;45269;-68
2021/08/22 05:13:19;;;;;;;;;4.00;4.00;;;;;18.31;100.00;101600.31;5119524;27;45602;-68
2021/08/22 05:15:45;;;;;;;;;5.00;3.25;;;;;18.27;100.00;101596.03;5120096;27;45265;-69
2021/08/22 05:18:11;;;;;;;;;6.75;5.00;;;;;18.28;100.00;101603.91;5120097;27;45388;-68
2021/08/22 05:20:39;;;;;;;;;4.25;4.00;;;;;18.30;100.00;101611.78;5119850;27;46415;-68
2021/08/22 05:23:05;;;;;;;;;6.50;4.75;;;;;18.29;100.00;101612.72;5119846;27;45465;-68
2021/08/22 05:25:30;;;;;;;;;10.00;5.25;;;;;18.25;100.00;101605.81;5119666;27;45282;-69
2021/08/22 05:27:55;;;;;;;;;4.00;3.00;;;;;18.29;100.00;101610.06;5119926;27;45465;-69
2021/08/22 05:30:31;;;;;;;;;5.50;5.50;;;;;18.25;100.00;101595.22;5132489;27;45421;-67
2021/08/22 05:32:56;;;;;;;;;6.00;4.00;;;;;18.29;100.00;101608.28;5096846;27;45433;-67
2021/08/22 05:35:22;;;;;;;;;5.50;4.50;;;;;18.30;100.00;101607.38;5094455;27;45209;-67
2021/08/22 05:37:47;;;;;;;;;4.50;3.25;;;;;18.34;100.00;101605.53;5094389;27;45279;-68
2021/08/22 05:40:13;;;;;;;;;8.00;5.00;;;;;18.42;100.00;101614.06;5093654;27;45668;-67
2021/08/22 05:42:38;;;;;;;;;8.00;5.75;;;;;18.39;100.00;101594.78;5107778;27;45284;-67
2021/08/22 05:45:04;;;;;;;;;4.75;4.25;;;;;18.50;100.00;101614.66;5094816;27;45498;-67
2021/08/22 05:47:30;;;;;;;;;6.00;5.75;;;;;18.54;100.00;101615.41;5110232;27;45464;-68
2021/08/22 05:49:55;;;;;;;;;7.00;6.50;;;;;18.56;100.00;101617.13;5106664;27;47036;-68
2021/08/22 05:52:20;;;;;;;;;5.00;4.25;;;;;18.58;100.00;101623.22;5103550;27;45500;-67
2021/08/22 05:54:46;;;;;;;;;5.75;4.00;;;;;18.66;100.00;101633.56;5113150;27;45388;-67
2021/08/22 05:57:11;;;;;;;;;6.00;5.00;;;;;18.67;100.00;101624.72;5094346;27;45324;-68
2021/08/22 05:59:37;;;;;;;;;6.50;5.00;;;;;18.79;100.00;101626.09;5097721;27;46337;-68
2021/08/22 06:02:03;;;;;;;;;4.50;4.50;;;;;18.87;100.00;101634.63;5093825;27;45904;-67
2021/08/22 06:04:28;;;;;;;;;3.25;3.00;;;;;18.91;100.00;101629.16;5093952;27;45378;-68
2021/08/22 06:06:53;;;;;;;;;4.25;4.00;;;;;19.03;100.00;101640.25;5123254;27;45427;-68
2021/08/22 06:09:19;;;;;;;;;4.75;4.50;;;;;19.02;100.00;101627.94;5094486;27;47189;-68
2021/08/22 06:11:44;;;;;;;;;4.75;4.00;;;;;19.10;100.00;101645.28;5104763;27;45484;-68
2021/08/22 06:14:10;;;;;;;;;4.50;4.00;;;;;19.10;100.00;101639.13;5111223;27;45357;-68
2021/08/22 06:16:35;;;;;;;;;4.00;4.00;;;;;19.20;100.00;101645.81;5102681;27;45487;-68
2021/08/22 06:19:01;;;;;;;;;3.75;3.50;;;;;19.19;100.00;101644.94;5098887;27;45395;-68
2021/08/22 06:21:26;;;;;;;;;5.75;5.25;;;;;19.26;100.00;101646.47;5100167;27;45319;-68
2021/08/22 06:23:53;;;;;;;;;5.25;4.75;;;;;19.26;100.00;101646.47;5101156;27;45572;-68
2021/08/22 06:26:19;;;;;;;;;5.00;4.00;;;;;19.36;100.00;101647.00;5093655;27;45320;-68
2021/08/22 06:28:44;;;;;;;;;5.00;4.00;;;;;19.43;100.00;101653.78;5093230;27;46350;-68
2021/08/22 06:31:09;;;;;;;;;5.75;5.00;;;;;19.49;100.00;101653.59;5093184;27;45309;-68
2021/08/22 06:33:35;;;;;;;;;4.25;4.00;;;;;19.54;100.00;101642.84;5093565;27;45382;-68
2021/08/22 06:36:02;;;;;;;;;5.00;5.00;;;;;19.67;100.00;101662.63;5103889;27;45214;-68
2021/08/22 06:38:27;;;;;;;;;5.00;4.75;;;;;19.68;100.00;101659.06;5095239;27;47354;-68
2021/08/22 06:40:53;;;;;;;;;5.50;5.00;;;;;19.63;100.00;101652.22;5084663;27;45483;-68
2021/08/22 06:43:19;;;;;;;;;5.00;4.00;;;;;19.66;100.00;101663.56;5084409;27;45453;-68
2021/08/22 06:45:44;;;;;;;;;3.50;3.50;;;;;19.70;100.00;101667.84;5089381;27;45457;-68
2021/08/22 06:48:11;;;;;;;;;3.50;3.50;;;;;19.78;100.00;101678.16;5093800;27;45503;-68
2021/08/22 06:50:37;;;;;;;;;5.25;4.00;;;;;19.83;100.00;101679.69;5088323;27;45447;-68
2021/08/22 06:53:03;;;;;;;;;4.00;4.00;;;;;19.93;100.00;101682.88;5084665;27;45225;-68
2021/08/22 06:55:29;;;;;;;;;4.75;4.00;;;;;20.07;100.00;101685.00;5082156;27;45510;-68
2021/08/22 06:57:54;;;;;;;;;7.25;5.50;;;;;20.18;100.00;101680.16;5092512;27;45236;-68
2021/08/22 07:00:20;;;;;;;;;3.75;3.25;;;;;20.22;100.00;101676.44;5080974;27;45347;-68
2021/08/22 07:02:45;;;;;;;;;3.00;2.00;;;;;20.23;100.00;101672.88;5099921;27;45343;-68
2021/08/22 07:05:12;;;;;;;;;2.25;2.25;;;;;20.22;100.00;101687.06;5115733;27;45459;-68
2021/08/22 07:07:37;;;;;;;;;1.50;0.25;;;;;20.13;100.00;101682.09;5079879;27;45562;-68
2021/08/22 07:10:03;;;;;;;;;4.50;3.50;;;;;20.14;100.00;101691.78;5090296;27;45530;-68
2021/08/22 07:12:28;;;;;;;;;3.50;2.75;;;;;20.03;100.00;101686.03;5082035;27;45316;-68
2021/08/22 07:14:54;;;;;;;;;5.75;4.75;;;;;19.99;100.00;101695.03;5088474;27;45285;-68
2021/08/22 07:17:21;;;;;;;;;3.00;3.00;;;;;19.95;100.00;101682.81;5097855;27;47529;-68
2021/08/22 07:19:47;;;;;;;;;5.25;4.00;;;;;19.96;100.00;101679.25;5099412;27;45311;-68
2021/08/22 07:22:13;;;;;;;;;4.00;4.00;;;;;19.94;100.00;101670.50;5098273;27;45167;-67
2021/08/22 07:24:38;;;;;;;;;4.75;4.00;;;;;20.10;100.00;101699.00;5079992;27;45452;-67
2021/08/22 07:27:04;;;;;;;;;2.50;2.50;;;;;20.11;100.00;101689.25;5078583;27;46346;-67
2021/08/22 07:29:29;;;;;;;;;4.25;4.00;;;;;20.16;100.00;101696.13;5092855;27;45288;-68
2021/08/22 07:31:54;;;;;;;;;5.00;3.50;;;;;20.24;100.00;101694.94;5083077;27;45276;-67
2021/08/22 07:34:20;;;;;;;;;2.50;2.00;;;;;20.35;100.00;101685.63;5079826;27;45153;-67
2021/08/22 07:36:45;;;;;;;;;4.25;4.25;;;;;20.49;100.00;101701.91;5092351;27;45351;-68
2021/08/22 07:39:12;;;;;;;;;5.00;5.00;;;;;20.46;100.00;101680.81;5078726;27;45281;-67
2021/08/22 07:41:37;;;;;;;;;5.00;4.00;;;;;20.60;100.00;101698.84;5109116;27;45410;-68
2021/08/22 07:44:03;;;;;;;;;3.75;3.00;;;;;20.65;100.00;101701.28;5089776;27;45370;-67
2021/08/22 07:46:28;;;;;;;;;3.75;3.75;;;;;20.65;100.00;101696.00;5095891;27;47213;-67
2021/08/22 07:48:54;;;;;;;;;5.50;3.75;;;;;20.64;100.00;101715.50;5078504;27;45443;-67
2021/08/22 07:51:19;;;;;;;;;3.00;3.00;;;;;20.65;100.00;101702.16;5094545;27;45371;-66
2021/08/22 07:53:45;;;;;;;;;4.25;3.25;;;;;20.77;100.00;101701.63;5091438;27;45412;-68
2021/08/22 07:56:10;;;;;;;;;3.25;3.25;;;;;20.92;100.00;101705.47;5091230;27;46384;-67
2021/08/22 07:58:36;;;;;;;;;2.50;2.00;;;;;20.95;100.00;101700.00;5093874;27;45561;-67
2021/08/22 08:01:01;;;;;;;;;7.50;5.00;;;;;20.99;100.00;101709.56;5078481;27;45220;-68
2021/08/22 08:03:26;;;;;;;;;4.00;4.00;;;;;21.13;100.00;101724.94;5078597;27;45423;-67
2021/08/22 08:05:54;;;;;;;;;4.50;2.75;;;;;21.19;100.00;101719.34;5082535;27;46065;-68
2021/08/22 08:08:19;;;;;;;;;5.00;3.00;;;;;21.23;100.00;101726.25;5098751;27;45463;-68
2021/08/22 08:10:45;;;;;;;;;3.75;3.00;;;;;21.27;100.00;101730.53;5098706;27;45292;-68
2021/08/22 08:13:10;;;;;;;;;4.75;3.00;;;;;21.31;100.00;101716.22;5090128;27;45445;-68
2021/08/22 08:15:36;;;;;;;;;17.25;16.25;;;;;21.44;100.00;101715.66;5077839;27;45617;-68
2021/08/22 08:18:01;;;;;;;;;3.75;3.50;;;;;21.60;100.00;101716.72;5084901;27;45328;-68
2021/08/22 08:20:26;;;;;;;;;3.00;3.00;;;;;21.74;100.00;101732.06;5098488;27;45410;-68
2021/08/22 08:22:52;;;;;;;;;3.00;3.00;;;;;21.66;100.00;101716.44;5097327;27;45324;-68
2021/08/22 08:25:17;;;;;;;;;3.00;3.00;;;;;21.70;100.00;101736.63;5087570;27;46399;-69
2021/08/22 08:27:49;;;;;;;;;5.00;4.00;;;;;21.73;100.00;101735.63;5077853;27;45529;-69
2021/08/22 08:30:15;;;;;;;;;4.00;2.25;;;;;21.75;100.00;101737.31;5077658;27;45332;-66
2021/08/22 08:32:40;;;;;;;;;4.25;3.50;;;;;21.79;100.00;101735.38;5077866;27;45512;-67
2021/08/22 08:35:12;;;;;;;;;5.50;4.00;;;;;21.95;100.00;101744.34;5077860;27;45656;-68
2021/08/22 08:37:41;;;;;;;;;2.25;1.50;;;;;22.13;100.00;101734.72;5092040;27;45214;-68
2021/08/22 08:40:15;;;;;;;;;3.25;2.50;;;;;22.28;100.00;101731.34;5091688;27;45386;-67
2021/08/22 08:43:01;;;;;;;;;4.00;4.00;;;;;22.48;100.00;101723.28;5077839;27;45243;-67
2021/08/22 08:45:41;;;;;;;;;3.00;3.00;;;;;22.44;100.00;101710.19;5085815;27;45503;-67
2021/08/22 08:48:07;;;;;;;;;3.75;3.75;;;;;22.47;100.00;101728.66;5095734;27;45570;-67
2021/08/22 08:51:00;;;;;;;;;2.75;2.75;;;;;22.58;100.00;101726.34;5081419;27;45444;-67
2021/08/22 08:53:45;;;;;;;;;2.00;2.00;;;;;22.79;100.00;101735.94;5091764;27;45580;-68
2021/08/22 08:56:19;;;;;;;;;2.00;2.00;;;;;23.01;100.00;101732.25;5077596;27;46419;-66
2021/08/22 08:58:44;;;;;;;;;2.25;2.25;;;;;23.19;100.00;101721.50;5077017;27;45366;-67
2021/08/22 09:01:09;;;;;;;;;4.00;4.00;;;;;23.30;100.00;101736.94;5077538;27;45427;-67
2021/08/22 09:03:36;;;;;;;;;3.00;1.75;;;;;23.20;100.00;101725.03;5077279;27;45304;-67
2021/08/22 09:06:04;;;;;;;;;2.00;2.00;;;;;23.23;100.00;101744.38;5083102;27;45916;-68
2021/08/22 09:08:45;;;;;;;;;3.75;3.00;;;;;23.31;100.00;101735.13;5097581;27;45604;-68
2021/08/22 09:11:19;;;;;;;;;3.00;2.50;;;;;23.34;100.00;101735.88;5083646;27;45323;-68
2021/08/22 09:14:22;;;;;;;;;3.25;2.75;;;;;23.48;100.00;101732.47;5084323;27;45426;-67
2021/08/22 09:17:24;;;;;;;;;3.25;2.25;;;;;23.67;100.00;101746.59;5087704;27;45710;-67
2021/08/22 09:19:56;;;;;;;;;2.00;2.00;;;;;23.67;100.00;101740.38;5113169;27;45435;-69
2021/08/22 09:22:59;;;;;;;;;2.00;2.00;;;;;23.67;100.00;101751.06;5083102;27;45248;-67
2021/08/22 09:26:02;;;;;;;;;3.00;2.50;;;;;23.51;100.00;101730.50;5077360;27;45455;-67
2021/08/22 09:28:50;;;;;;;;;2.00;2.00;;;;;23.68;100.00;101736.78;5084221;27;46303;-67
2021/08/22 09:31:52;;;;;;;;;12.00;8.50;;;;;23.53;100.00;101743.75;5079049;27;45703;-67
2021/08/22 09:34:55;;;;;;;;;4.25;3.25;;;;;23.18;100.00;101748.25;5091731;27;45372;-66
2021/08/22 09:37:29;;;;;;;;;3.00;2.00;;;;;22.96;100.00;101756.44;5097418;27;45287;-66
2021/08/22 09:40:23;;;;;;;;;4.00;3.00;;;;;22.87;100.00;101749.78;5077958;27;46626;-67
2021/08/22 09:43:25;;;;;;;;;3.00;3.00;;;;;22.75;100.00;101750.34;5091161;27;45293;-67
2021/08/22 09:46:18;;;;;;;;;3.50;3.00;;;;;22.96;100.00;101751.13;5088602;27;45518;-68
2021/08/22 09:49:22;;;;;;;;;1.00;1.00;;;;;23.77;100.00;101755.84;5090226;27;45260;-68
2021/08/22 09:51:50;;;;;;;;;3.00;2.75;;;;;24.37;100.00;101750.78;5076470;27;45698;-68
2021/08/22 09:54:42;;;;;;;;;2.00;2.00;;;;;24.56;100.00;101747.94;5086412;27;45659;-68
2021/08/22 09:57:45;;;;;;;;;1.25;1.25;;;;;24.48;100.00;101747.53;5095078;27;45508;-67
2021/08/22 10:00:32;;;;;;;;;2.00;2.00;;;;;24.37;100.00;101752.59;5094893;27;45458;-67
2021/08/22 10:03:38;;;;;;;;;1.75;1.75;;;;;24.38;100.00;101762.31;5077586;27;47696;-68
2021/08/22 10:06:34;;;;;;;;;0.50;0.50;;;;;24.37;100.00;101752.59;5074166;28;45603;-67
2021/08/22 10:09:11;;;;;;;;;1.75;1.75;;;;;24.42;100.00;101747.84;5090768;27;45559;-67
2021/08/22 10:11:48;;;;;;;;;1.00;1.00;;;;;24.50;100.00;101748.28;5095165;27;45397;-67
2021/08/22 10:14:14;;;;;;;;;1.00;1.00;;;;;24.90;100.00;101751.38;5076992;27;47246;-67
2021/08/22 10:16:40;;;;;;;;;0.75;0.00;;;;;25.60;100.00;101737.34;5097242;27;45424;-66
2021/08/22 10:19:07;;;;;;;;;1.00;1.00;;;;;26.77;100.00;101736.19;5081123;27;45470;-68
2021/08/22 10:21:33;;;;;;;;;0.00;0.00;;;;;28.07;100.00;101741.53;5098428;27;45344;-66
2021/08/22 10:24:06;;;;;;;;;0.00;0.00;;;;;28.93;100.00;101736.94;5098254;27;45312;-66
2021/08/22 10:26:51;;;;;;;;;2.00;1.25;;;;;28.99;100.00;101738.31;5098131;27;45583;-67
2021/08/22 10:29:29;;;;;;;;;0.00;0.00;;;;;28.74;100.00;101736.56;5097577;27;45440;-67
2021/08/22 10:31:55;;;;;;;;;2.00;0.25;;;;;29.51;100.00;101742.41;5098136;27;45538;-68
2021/08/22 10:34:24;;;;;;;;;0.00;0.00;;;;;30.10;96.13;101729.63;5087210;27;45368;-68
2021/08/22 10:36:51;;;;;;;;;0.50;0.50;;;;;29.44;97.23;101736.63;5079929;27;45443;-67
2021/08/22 10:39:19;;;;;;;;;2.25;2.25;;;;;28.51;100.00;101740.97;5079785;27;45409;-67
2021/08/22 10:41:45;;;;;;;;;0.00;0.00;;;;;27.60;100.00;101744.81;5094090;27;45451;-68
2021/08/22 10:44:40;;;;;;;;;1.00;0.50;;;;;26.91;100.00;101743.28;5090251;27;48031;-67
2021/08/22 10:47:11;;;;;;;;;1.00;0.50;;;;;27.62;100.00;101737.56;5057145;28;45464;-68
2021/08/22 10:49:54;;;;;;;;;1.00;1.00;;;;;28.38;100.00;101734.78;5057075;28;45504;-67
2021/08/22 10:52:41;;;;;;;;;0.25;0.25;;;;;28.68;100.00;101723.59;5057134;28;45654;-68
2021/08/22 10:55:15;;;;;;;;;0.50;0.50;;;;;29.51;100.00;101729.81;5056424;28;46401;-68
2021/08/22 10:57:43;;;;;;;;;1.50;1.00;;;;;29.80;97.56;101732.03;5056732;28;45423;-68
2021/08/22 11:00:19;;;;;;;;;0.00;0.00;;;;;30.65;94.33;101717.00;5056762;28;45506;-67
2021/08/22 11:02:47;;;;;;;;;0.00;0.00;;;;;30.81;90.43;101724.69;5057249;28;45475;-68
2021/08/22 11:05:15;;;;;;;;;0.00;0.00;;;;;30.72;90.96;101726.28;5056436;28;45460;-68
2021/08/22 11:07:42;;;;;;;;;0.00;0.00;;;;;30.20;89.13;101715.38;5056415;28;45231;-67
2021/08/22 11:10:14;;;;;;;;;0.00;0.00;;;;;31.80;90.49;101726.94;5056636;28;45450;-68
2021/08/22 11:12:40;;;;;;;;;0.00;0.00;;;;;32.30;81.32;101721.56;5056619;28;45518;-68
2021/08/22 11:15:07;;;;;;;;;0.00;0.00;;;;;32.73;78.87;101723.03;5056539;28;45576;-67
2021/08/22 11:17:32;;;;;;;;;1.00;0.00;;;;;33.60;76.59;101726.53;5056437;28;45538;-67
2021/08/22 11:20:29;;;;;;;;;2.00;1.00;;;;;32.88;78.44;101733.34;5056404;28;45480;-67
2021/08/22 11:23:01;;;;;;;;;0.00;0.00;;;;;31.72;78.70;101725.91;5026479;28;45331;-67
2021/08/22 11:25:26;;;;;;;;;0.00;0.00;;;;;30.76;81.00;101738.53;5056218;28;46078;-68
2021/08/22 11:28:04;;;;;;;;;8.00;8.00;;;;;29.89;82.89;101744.78;5055810;28;45481;-68
2021/08/22 11:30:29;;;;;;;;;1.25;1.00;;;;;29.20;83.94;101730.44;5056313;28;45794;-68
2021/08/22 11:32:55;;;;;;;;;0.25;0.00;;;;;28.72;84.87;101737.66;5055956;28;45546;-68
2021/08/22 11:35:24;;;;;;;;;0.00;0.00;;;;;28.70;86.42;101743.16;5056155;28;45521;-68
2021/08/22 11:37:51;;;;;;;;;0.00;0.00;;;;;29.13;87.43;101742.63;5056047;28;45691;-67
2021/08/22 11:40:19;;;;;;;;;1.25;1.25;;;;;28.91;86.31;101743.41;5055897;28;45599;-67
2021/08/22 11:42:46;;;;;;;;;0.00;0.00;;;;;28.50;88.34;101743.75;5056443;28;45410;-68
2021/08/22 11:45:20;;;;;;;;;1.00;0.00;;;;;28.08;89.31;101748.59;5055982;28;45445;-67
2021/08/22 11:47:46;;;;;;;;;0.00;0.00;;;;;27.69;91.19;101741.56;5055782;28;45465;-67
2021/08/22 11:50:14;;;;;;;;;0.00;0.00;;;;;27.34;92.14;101744.81;5055786;28;45432;-67
2021/08/22 11:52:45;;;;;;;;;1.25;0.75;;;;;27.00;94.23;101748.94;5056219;28;45424;-68
2021/08/22 11:55:11;;;;;;;;;0.50;0.25;;;;;26.69;96.76;101759.94;5055610;28;45434;-67
2021/08/22 11:57:37;;;;;;;;;1.25;1.25;;;;;26.39;99.74;101769.00;5055844;28;45414;-67
2021/08/22 12:00:08;;;;;;;;;2.00;2.00;;;;;26.08;100.00;101753.16;5074123;27;45475;-67
2021/08/22 12:02:34;;;;;;;;;2.25;1.25;;;;;26.52;100.00;101775.31;5092797;27;45306;-67
2021/08/22 12:05:16;;;;;;;;;1.25;1.25;;;;;27.52;100.00;101771.34;5089858;27;45516;-68